• Join FlightAware (Why Join?)
  • Login
  • US Flag 
02:29PM EDT


 

Airport Tracker/Info


-or-


 

Live Flight TrackerFlight Track Log ✈ UAE787 ✈ 09-May-2013 ✈ DGAA / ACC - DIAP / ABJ

Flight Track Log - Related Links

Times and Time Zones

All times are in EDT time to prevent confusion due to time zone crossing. See the UAE787 flight status page for this flight to view local times or setup timezone preferences in your user account.

Time Position Orientation Groundspeed Altitude Reporting Facility
EDT Latitude Longitude Course Direction KTS MPH feet Rate Location/Type
09:18AM 5.5999 -0.2437 266° West  Level FlightAware Approximate
09:19AM 5.5945 -0.3206 266° West  Level FlightAware Approximate
09:20AM 5.5892 -0.3975 266° West  Level FlightAware Approximate
09:21AM 5.5838 -0.4743 266° West  Level FlightAware Approximate
09:22AM 5.5784 -0.5512 266° West  Level FlightAware Approximate
09:23AM 5.5731 -0.6281 266° West  Level FlightAware Approximate
09:24AM 5.5677 -0.7050 266° West  Level FlightAware Approximate
09:25AM 5.5623 -0.7818 266° West  Level FlightAware Approximate
09:26AM 5.5569 -0.8587 266° West  Level FlightAware Approximate
09:27AM 5.5514 -0.9356 266° West  Level FlightAware Approximate
09:28AM 5.5460 -1.0125 266° West  Level FlightAware Approximate
09:29AM 5.5406 -1.0893 266° West  Level FlightAware Approximate
09:30AM 5.5351 -1.1662 266° West  Level FlightAware Approximate
09:31AM 5.5297 -1.2431 266° West  Level FlightAware Approximate
09:32AM 5.5242 -1.3200 266° West  Level FlightAware Approximate
09:33AM 5.5187 -1.3968 266° West  Level FlightAware Approximate
09:34AM 5.5132 -1.4737 266° West  Level FlightAware Approximate
09:35AM 5.5077 -1.5506 266° West  Level FlightAware Approximate
09:36AM 5.5022 -1.6274 266° West  Level FlightAware Approximate
09:37AM 5.4967 -1.7043 266° West  Level FlightAware Approximate
09:38AM 5.4912 -1.7811 266° West  Level FlightAware Approximate
09:39AM 5.4856 -1.8580 266° West  Level FlightAware Approximate
09:40AM 5.4801 -1.9349 266° West  Level FlightAware Approximate
09:41AM 5.4745 -2.0117 266° West  Level FlightAware Approximate
09:42AM 5.4689 -2.0886 266° West  Level FlightAware Approximate
09:43AM 5.4634 -2.1654 266° West  Level FlightAware Approximate
09:44AM 5.4578 -2.2423 266° West  Level FlightAware Approximate
09:45AM 5.4522 -2.3191 266° West  Level FlightAware Approximate
09:46AM 5.4466 -2.3960 266° West  Level FlightAware Approximate
09:47AM 5.4409 -2.4728 266° West  Level FlightAware Approximate
09:48AM 5.4353 -2.5497 266° West  Level FlightAware Approximate
09:49AM 5.4297 -2.6265 266° West  Level FlightAware Approximate
09:50AM 5.4240 -2.7034 266° West  Level FlightAware Approximate
09:51AM 5.4184 -2.7802 266° West  Level FlightAware Approximate
09:52AM 5.4127 -2.8570 266° West  Level FlightAware Approximate
09:53AM 5.4083 -2.9167 265° West  Level FlightAware Approximate
09:54AM 5.3973 -2.9929 265° West  Level Estimated
09:55AM 5.4083 -2.9167 265° West  Level FlightAware Approximate
09:56AM 5.3973 -2.9929 265° West  Level Estimated
09:57AM 5.4083 -2.9167 265° West  Level FlightAware Approximate
09:58AM 5.3973 -2.9929 265° West  Level Estimated
09:59AM 5.4083 -2.9167 265° West  Level FlightAware Approximate
10:00AM 5.3973 -2.9929 265° West  Level Estimated
10:01AM 5.4083 -2.9167 265° West  Level FlightAware Approximate
10:02AM 5.3973 -2.9929 265° West  Level Estimated
10:03AM 5.4083 -2.9167 265° West  Level FlightAware Approximate
10:04AM 5.3973 -2.9929 265° West  Level Estimated
10:05AM 5.4083 -2.9167 265° West  Level FlightAware Approximate
10:06AM 5.3973 -2.9929 265° West  Level Estimated
10:07AM 5.4083 -2.9167 265° West  Level FlightAware Approximate
10:08AM 5.3973 -2.9929 265° West  Level Estimated
10:09AM 5.3888 -3.0514 265° West  Level Estimated